TRA10D LFPG-EHAM
Flight info
| Callsign | TRA10D |
|---|---|
| Flight time | 0h 41m |
| Altitude | 30000 |
| Route | NURMO DCT CMB DCT VEKIN DCT ADUTO N873 FERDI Y18 DENUT |
| Aircraft | B738/M-SDE2E3FGHIRWXY/LB1 |
Departure
| Time | 2026-05-08 18:44 |
|---|---|
| Airport | Charles de Gaulle International Airport (LFPG) |
Arrival
| Time | 2026-05-08 19:26 |
|---|---|
| Airport | Amsterdam Airport Schiphol (EHAM) |
| Time | Latitude | Longitude | Altitude | Speed | Heading |
|---|---|---|---|---|---|
| 2026-05-08 18:07 | 49.01115 | 2.54353 | 350 ft | 0 kts | 175° |
| 2026-05-08 18:23 | 49.01128 | 2.54352 | 359 ft | 4 kts | 177° |
| 2026-05-08 18:24 | 49.01156 | 2.54352 | 357 ft | 4 kts | 186° |
| 2026-05-08 18:24 | 49.01182 | 2.54360 | 360 ft | 4 kts | 204° |
| 2026-05-08 18:24 | 49.01201 | 2.54382 | 360 ft | 4 kts | 251° |
| 2026-05-08 18:24 | 49.01203 | 2.54394 | 361 ft | 2 kts | 264° |
| 2026-05-08 18:25 | 49.01203 | 2.54398 | 361 ft | 2 kts | 264° |
| 2026-05-08 18:28 | 49.01202 | 2.54386 | 361 ft | 3 kts | 264° |
| 2026-05-08 18:28 | 49.01197 | 2.54308 | 354 ft | 12 kts | 264° |
| 2026-05-08 18:28 | 49.01191 | 2.54224 | 349 ft | 12 kts | 263° |
| 2026-05-08 18:28 | 49.01185 | 2.54093 | 350 ft | 13 kts | 266° |
| 2026-05-08 18:29 | 49.01178 | 2.53944 | 358 ft | 16 kts | 266° |
| 2026-05-08 18:29 | 49.01195 | 2.53763 | 355 ft | 18 kts | 300° |
| 2026-05-08 18:29 | 49.01292 | 2.53654 | 356 ft | 17 kts | 338° |
| 2026-05-08 18:29 | 49.01416 | 2.53608 | 353 ft | 19 kts | 355° |
| 2026-05-08 18:30 | 49.01547 | 2.53607 | 357 ft | 19 kts | 355° |
| 2026-05-08 18:30 | 49.01674 | 2.53591 | 358 ft | 18 kts | 355° |
| 2026-05-08 18:30 | 49.01794 | 2.53577 | 358 ft | 11 kts | 357° |
| 2026-05-08 18:30 | 49.01857 | 2.53537 | 358 ft | 10 kts | 302° |
| 2026-05-08 18:31 | 49.01862 | 2.53427 | 354 ft | 11 kts | 265° |
| 2026-05-08 18:31 | 49.01855 | 2.53298 | 354 ft | 13 kts | 265° |
| 2026-05-08 18:31 | 49.01846 | 2.53145 | 354 ft | 16 kts | 265° |
| 2026-05-08 18:31 | 49.01837 | 2.52956 | 354 ft | 19 kts | 266° |
| 2026-05-08 18:32 | 49.01825 | 2.52735 | 356 ft | 23 kts | 265° |
| 2026-05-08 18:32 | 49.01811 | 2.52486 | 358 ft | 19 kts | 265° |
| 2026-05-08 18:32 | 49.01857 | 2.52358 | 354 ft | 15 kts | 336° |
| 2026-05-08 18:32 | 49.01887 | 2.52218 | 358 ft | 15 kts | 266° |
| 2026-05-08 18:33 | 49.01878 | 2.52043 | 354 ft | 18 kts | 266° |
| 2026-05-08 18:33 | 49.01866 | 2.51830 | 358 ft | 22 kts | 265° |
| 2026-05-08 18:33 | 49.01852 | 2.51579 | 354 ft | 25 kts | 266° |
| 2026-05-08 18:33 | 49.01846 | 2.51362 | 358 ft | 16 kts | 281° |
| 2026-05-08 18:34 | 49.01920 | 2.51251 | 354 ft | 16 kts | 351° |
| 2026-05-08 18:34 | 49.01953 | 2.51252 | 354 ft | 0 kts | 9° |
| 2026-05-08 18:43 | 49.01957 | 2.51254 | 354 ft | 2 kts | 12° |
| 2026-05-08 18:43 | 49.01992 | 2.51278 | 360 ft | 8 kts | 33° |
| 2026-05-08 18:43 | 49.02051 | 2.51335 | 355 ft | 9 kts | 30° |
| 2026-05-08 18:43 | 49.02071 | 2.51428 | 354 ft | 10 kts | 83° |
| 2026-05-08 18:44 | 49.02091 | 2.51695 | 357 ft | 62 kts | 84° |
| 2026-05-08 18:44 | 49.02151 | 2.52790 | 362 ft | 142 kts | 83° |
| 2026-05-08 18:44 | 49.02274 | 2.54538 | 874 ft | 170 kts | 85° |
| 2026-05-08 18:44 | 49.02346 | 2.56274 | 2162 ft | 161 kts | 85° |
| 2026-05-08 18:45 | 49.02428 | 2.58056 | 2927 ft | 181 kts | 86° |
| 2026-05-08 18:45 | 49.02532 | 2.60080 | 3456 ft | 198 kts | 85° |
| 2026-05-08 18:45 | 49.02650 | 2.62213 | 3880 ft | 216 kts | 85° |
| 2026-05-08 18:45 | 49.02775 | 2.64601 | 4283 ft | 231 kts | 85° |
| 2026-05-08 18:46 | 49.02904 | 2.67083 | 4870 ft | 237 kts | 86° |
| 2026-05-08 18:46 | 49.03036 | 2.69613 | 4975 ft | 242 kts | 86° |
| 2026-05-08 18:46 | 49.03197 | 2.72176 | 4967 ft | 244 kts | 78° |
| 2026-05-08 18:46 | 49.03967 | 2.74456 | 4996 ft | 245 kts | 47° |
| 2026-05-08 18:47 | 49.05414 | 2.75819 | 5290 ft | 251 kts | 18° |
| 2026-05-08 18:47 | 49.07154 | 2.76226 | 6031 ft | 255 kts | 3° |
| 2026-05-08 18:47 | 49.08987 | 2.76262 | 6584 ft | 272 kts | 359° |
| 2026-05-08 18:47 | 49.10912 | 2.76211 | 7324 ft | 280 kts | 358° |
| 2026-05-08 18:48 | 49.12881 | 2.76150 | 8164 ft | 285 kts | 358° |
| 2026-05-08 18:48 | 49.14871 | 2.76096 | 9040 ft | 288 kts | 358° |
| 2026-05-08 18:48 | 49.16883 | 2.76053 | 9950 ft | 291 kts | 358° |
| 2026-05-08 18:48 | 49.18940 | 2.76016 | 10557 ft | 304 kts | 358° |
| 2026-05-08 18:49 | 49.21122 | 2.75982 | 10747 ft | 330 kts | 358° |
| 2026-05-08 18:49 | 49.23499 | 2.75952 | 11023 ft | 351 kts | 358° |
| 2026-05-08 18:49 | 49.25981 | 2.75928 | 11632 ft | 360 kts | 358° |
| 2026-05-08 18:49 | 49.28497 | 2.75909 | 12418 ft | 364 kts | 359° |
| 2026-05-08 18:50 | 49.31048 | 2.75891 | 13213 ft | 368 kts | 359° |
| 2026-05-08 18:50 | 49.33648 | 2.75873 | 13982 ft | 372 kts | 359° |
| 2026-05-08 18:50 | 49.36188 | 2.75855 | 14662 ft | 375 kts | 359° |
| 2026-05-08 18:50 | 49.38842 | 2.75837 | 15383 ft | 378 kts | 359° |
| 2026-05-08 18:51 | 49.41459 | 2.75957 | 16031 ft | 384 kts | 6° |
| 2026-05-08 18:51 | 49.44080 | 2.76857 | 16655 ft | 389 kts | 16° |
| 2026-05-08 18:51 | 49.46672 | 2.78095 | 17380 ft | 391 kts | 18° |
| 2026-05-08 18:51 | 49.49270 | 2.79385 | 18089 ft | 394 kts | 18° |
| 2026-05-08 18:52 | 49.51891 | 2.80691 | 18735 ft | 396 kts | 18° |
| 2026-05-08 18:52 | 49.54516 | 2.81987 | 19405 ft | 396 kts | 17° |
| 2026-05-08 18:52 | 49.57144 | 2.83270 | 20052 ft | 397 kts | 17° |
| 2026-05-08 18:52 | 49.59764 | 2.84538 | 20651 ft | 399 kts | 16° |
| 2026-05-08 18:53 | 49.62482 | 2.85847 | 21275 ft | 401 kts | 16° |
| 2026-05-08 18:53 | 49.65110 | 2.87110 | 21863 ft | 402 kts | 16° |
| 2026-05-08 18:53 | 49.67785 | 2.88394 | 22439 ft | 404 kts | 15° |
| 2026-05-08 18:53 | 49.70521 | 2.89709 | 23036 ft | 406 kts | 15° |
| 2026-05-08 18:54 | 49.73191 | 2.90993 | 23586 ft | 408 kts | 15° |
| 2026-05-08 18:54 | 49.75867 | 2.92282 | 24034 ft | 410 kts | 15° |
| 2026-05-08 18:54 | 49.78644 | 2.93621 | 24456 ft | 413 kts | 15° |
| 2026-05-08 18:54 | 49.81364 | 2.94934 | 24870 ft | 415 kts | 15° |
| 2026-05-08 18:55 | 49.86944 | 2.97633 | 25680 ft | 420 kts | 15° |
| 2026-05-08 18:55 | 49.89695 | 2.98966 | 26098 ft | 421 kts | 15° |
| 2026-05-08 18:55 | 49.92503 | 3.00329 | 26504 ft | 423 kts | 15° |
| 2026-05-08 18:56 | 49.95318 | 3.01698 | 26989 ft | 422 kts | 14° |
| 2026-05-08 18:56 | 49.98110 | 3.03057 | 27612 ft | 419 kts | 14° |
| 2026-05-08 18:56 | 50.00878 | 3.04407 | 28250 ft | 415 kts | 14° |
| 2026-05-08 18:56 | 50.03622 | 3.05746 | 28826 ft | 413 kts | 14° |
| 2026-05-08 18:57 | 50.06355 | 3.07081 | 29368 ft | 411 kts | 14° |
| 2026-05-08 18:57 | 50.08159 | 3.07962 | 29741 ft | 409 kts | 13° |
| 2026-05-08 18:57 | 50.11811 | 3.09747 | 30052 ft | 413 kts | 13° |
| 2026-05-08 18:58 | 50.17288 | 3.12432 | 30066 ft | 409 kts | 14° |
| 2026-05-08 18:58 | 50.22678 | 3.15098 | 30087 ft | 407 kts | 15° |
| 2026-05-08 18:59 | 50.27888 | 3.18579 | 30088 ft | 411 kts | 21° |
| 2026-05-08 18:59 | 50.33089 | 3.22328 | 30080 ft | 412 kts | 20° |
| 2026-05-08 19:00 | 50.37461 | 3.25422 | 30079 ft | 411 kts | 20° |
| 2026-05-08 19:00 | 50.43442 | 3.29769 | 30074 ft | 411 kts | 22° |
| 2026-05-08 19:01 | 50.48520 | 3.33819 | 30078 ft | 409 kts | 23° |
| 2026-05-08 19:01 | 50.53611 | 3.37745 | 30079 ft | 406 kts | 21° |
| 2026-05-08 19:02 | 50.58785 | 3.41273 | 30087 ft | 404 kts | 20° |
| 2026-05-08 19:02 | 50.63949 | 3.44753 | 30078 ft | 404 kts | 20° |
| 2026-05-08 19:03 | 50.69086 | 3.48275 | 30074 ft | 404 kts | 20° |
| 2026-05-08 19:03 | 50.74256 | 3.51853 | 30089 ft | 404 kts | 20° |
| 2026-05-08 19:04 | 50.79271 | 3.55340 | 30081 ft | 389 kts | 20° |
| 2026-05-08 19:04 | 50.84203 | 3.58769 | 30087 ft | 387 kts | 20° |
| 2026-05-08 19:05 | 50.89140 | 3.62189 | 29914 ft | 384 kts | 19° |
| 2026-05-08 19:05 | 50.91717 | 3.63414 | 29153 ft | 385 kts | 10° |
| 2026-05-08 19:05 | 50.94362 | 3.63998 | 28478 ft | 383 kts | 1° |
| 2026-05-08 19:05 | 50.97012 | 3.64153 | 28042 ft | 378 kts | 1° |
| 2026-05-08 19:06 | 50.99631 | 3.64287 | 27579 ft | 375 kts | 1° |
| 2026-05-08 19:06 | 51.02233 | 3.64425 | 27139 ft | 372 kts | 1° |
| 2026-05-08 19:06 | 51.04813 | 3.64572 | 26710 ft | 369 kts | 1° |
| 2026-05-08 19:06 | 51.07377 | 3.64726 | 26278 ft | 367 kts | 1° |
| 2026-05-08 19:07 | 51.09883 | 3.64882 | 25857 ft | 365 kts | 1° |
| 2026-05-08 19:07 | 51.12413 | 3.65043 | 25437 ft | 363 kts | 1° |
| 2026-05-08 19:07 | 51.14934 | 3.65204 | 25014 ft | 362 kts | 1° |
| 2026-05-08 19:07 | 51.17453 | 3.65365 | 24579 ft | 361 kts | 1° |
| 2026-05-08 19:08 | 51.19954 | 3.65525 | 24155 ft | 361 kts | 1° |
| 2026-05-08 19:08 | 51.22464 | 3.65686 | 23719 ft | 360 kts | 1° |
| 2026-05-08 19:08 | 51.24978 | 3.65802 | 23040 ft | 364 kts | 360° |
| 2026-05-08 19:08 | 51.27518 | 3.65760 | 22500 ft | 365 kts | 358° |
| 2026-05-08 19:09 | 51.30053 | 3.65659 | 22031 ft | 363 kts | 358° |
| 2026-05-08 19:09 | 51.32575 | 3.65549 | 21604 ft | 361 kts | 358° |
| 2026-05-08 19:09 | 51.35082 | 3.65446 | 21191 ft | 359 kts | 358° |
| 2026-05-08 19:09 | 51.37565 | 3.65354 | 20788 ft | 356 kts | 358° |
| 2026-05-08 19:10 | 51.40036 | 3.65269 | 20390 ft | 354 kts | 358° |
| 2026-05-08 19:10 | 51.42501 | 3.65189 | 19997 ft | 352 kts | 358° |
| 2026-05-08 19:10 | 51.44119 | 3.65138 | 19741 ft | 351 kts | 358° |
| 2026-05-08 19:10 | 51.46561 | 3.65063 | 19347 ft | 349 kts | 358° |
| 2026-05-08 19:11 | 51.48985 | 3.64988 | 18959 ft | 348 kts | 358° |
| 2026-05-08 19:11 | 51.51406 | 3.64914 | 18569 ft | 347 kts | 358° |
| 2026-05-08 19:11 | 51.53821 | 3.64840 | 18118 ft | 347 kts | 358° |
| 2026-05-08 19:11 | 51.56231 | 3.64766 | 17699 ft | 345 kts | 358° |
| 2026-05-08 19:12 | 51.58627 | 3.64692 | 17293 ft | 344 kts | 358° |
| 2026-05-08 19:12 | 51.61012 | 3.64619 | 16903 ft | 342 kts | 358° |
| 2026-05-08 19:12 | 51.63380 | 3.64546 | 16515 ft | 340 kts | 358° |
| 2026-05-08 19:12 | 51.65733 | 3.64473 | 16135 ft | 338 kts | 358° |
| 2026-05-08 19:13 | 51.68080 | 3.64473 | 15717 ft | 337 kts | 6° |
| 2026-05-08 19:13 | 51.70269 | 3.65756 | 15313 ft | 336 kts | 36° |
| 2026-05-08 19:13 | 51.71897 | 3.68348 | 14972 ft | 333 kts | 54° |
| 2026-05-08 19:13 | 51.73257 | 3.71421 | 14578 ft | 332 kts | 56° |
| 2026-05-08 19:14 | 51.74548 | 3.74450 | 14202 ft | 332 kts | 56° |
| 2026-05-08 19:14 | 51.75869 | 3.77558 | 13804 ft | 331 kts | 56° |
| 2026-05-08 19:14 | 51.77101 | 3.80441 | 13408 ft | 331 kts | 56° |
| 2026-05-08 19:14 | 51.78409 | 3.83483 | 12992 ft | 329 kts | 55° |
| 2026-05-08 19:15 | 51.79716 | 3.86509 | 12608 ft | 328 kts | 55° |
| 2026-05-08 19:15 | 51.81003 | 3.89483 | 12240 ft | 326 kts | 55° |
| 2026-05-08 19:15 | 51.82295 | 3.92465 | 11868 ft | 324 kts | 54° |
| 2026-05-08 19:15 | 51.83597 | 3.95469 | 11503 ft | 323 kts | 54° |
| 2026-05-08 19:16 | 51.84877 | 3.98427 | 11140 ft | 321 kts | 54° |
| 2026-05-08 19:16 | 51.86156 | 4.01385 | 10774 ft | 320 kts | 54° |
| 2026-05-08 19:16 | 51.87426 | 4.04323 | 10525 ft | 314 kts | 54° |
| 2026-05-08 19:16 | 51.88657 | 4.07173 | 10401 ft | 306 kts | 54° |
| 2026-05-08 19:17 | 51.89858 | 4.09962 | 10265 ft | 297 kts | 54° |
| 2026-05-08 19:17 | 51.91021 | 4.12656 | 10130 ft | 289 kts | 53° |
| 2026-05-08 19:17 | 51.92327 | 4.15078 | 10019 ft | 280 kts | 42° |
| 2026-05-08 19:17 | 51.93782 | 4.17135 | 9903 ft | 274 kts | 38° |
| 2026-05-08 19:18 | 51.95279 | 4.19099 | 9229 ft | 285 kts | 38° |
| 2026-05-08 19:18 | 51.96832 | 4.21112 | 8766 ft | 286 kts | 38° |
| 2026-05-08 19:18 | 51.98389 | 4.23129 | 8364 ft | 287 kts | 38° |
| 2026-05-08 19:18 | 51.99950 | 4.25155 | 7989 ft | 288 kts | 38° |
| 2026-05-08 19:19 | 52.01521 | 4.27198 | 7621 ft | 289 kts | 38° |
| 2026-05-08 19:19 | 52.03090 | 4.29242 | 7256 ft | 289 kts | 38° |
| 2026-05-08 19:19 | 52.04659 | 4.31289 | 6879 ft | 290 kts | 38° |
| 2026-05-08 19:19 | 52.06091 | 4.33160 | 6556 ft | 290 kts | 38° |
| 2026-05-08 19:20 | 52.07644 | 4.35191 | 6169 ft | 290 kts | 38° |
| 2026-05-08 19:20 | 52.08710 | 4.36586 | 5908 ft | 290 kts | 38° |
| 2026-05-08 19:20 | 52.10792 | 4.39315 | 5359 ft | 291 kts | 39° |
| 2026-05-08 19:20 | 52.12378 | 4.41395 | 4903 ft | 294 kts | 39° |
| 2026-05-08 19:21 | 52.13948 | 4.43458 | 4444 ft | 286 kts | 39° |
| 2026-05-08 19:21 | 52.15462 | 4.45446 | 4020 ft | 280 kts | 39° |
| 2026-05-08 19:21 | 52.16966 | 4.47424 | 3623 ft | 267 kts | 39° |
| 2026-05-08 19:21 | 52.18368 | 4.49268 | 3240 ft | 252 kts | 39° |
| 2026-05-08 19:22 | 52.19712 | 4.51039 | 2902 ft | 243 kts | 40° |
| 2026-05-08 19:22 | 52.20919 | 4.52862 | 2582 ft | 232 kts | 52° |
| 2026-05-08 19:22 | 52.21806 | 4.54988 | 2260 ft | 223 kts | 58° |
| 2026-05-08 19:22 | 52.22593 | 4.57097 | 2047 ft | 211 kts | 59° |
| 2026-05-08 19:23 | 52.23320 | 4.59043 | 1983 ft | 188 kts | 60° |
| 2026-05-08 19:23 | 52.23978 | 4.60813 | 1851 ft | 184 kts | 59° |
| 2026-05-08 19:23 | 52.24639 | 4.62558 | 1612 ft | 180 kts | 59° |
| 2026-05-08 19:23 | 52.25279 | 4.64232 | 1372 ft | 165 kts | 58° |
| 2026-05-08 19:24 | 52.25859 | 4.65746 | 1137 ft | 148 kts | 59° |
| 2026-05-08 19:24 | 52.26390 | 4.67135 | 950 ft | 147 kts | 59° |
| 2026-05-08 19:24 | 52.26927 | 4.68542 | 748 ft | 145 kts | 59° |
| 2026-05-08 19:24 | 52.27442 | 4.69886 | 575 ft | 140 kts | 58° |
| 2026-05-08 19:25 | 52.27949 | 4.71209 | 394 ft | 134 kts | 58° |
| 2026-05-08 19:25 | 52.28432 | 4.72471 | 206 ft | 128 kts | 57° |
| 2026-05-08 19:25 | 52.28894 | 4.73676 | 46 ft | 126 kts | 57° |
| 2026-05-08 19:25 | 52.29350 | 4.74850 | -3 ft | 112 kts | 57° |
| 2026-05-08 19:26 | 52.29719 | 4.75828 | -3 ft | 91 kts | 58° |
| 2026-05-08 19:26 | 52.30028 | 4.76631 | -3 ft | 76 kts | 57° |
| 2026-05-08 19:26 | 52.30200 | 4.77084 | -4 ft | 42 kts | 57° |
| 2026-05-08 19:26 | 52.30337 | 4.77333 | -4 ft | 16 kts | 32° |
| 2026-05-08 19:27 | 52.30409 | 4.77396 | -3 ft | 0 kts | 26° |
| 2026-05-08 19:29 | 52.30418 | 4.77403 | -3 ft | 4 kts | 26° |
| 2026-05-08 19:29 | 52.30459 | 4.77416 | -3 ft | 9 kts | 354° |
| 2026-05-08 19:29 | 52.30521 | 4.77391 | -2 ft | 9 kts | 6° |
| 2026-05-08 19:29 | 52.30561 | 4.77463 | -2 ft | 9 kts | 63° |
| 2026-05-08 19:30 | 52.30600 | 4.77541 | -2 ft | 9 kts | 48° |
| 2026-05-08 19:30 | 52.30651 | 4.77587 | -2 ft | 9 kts | 7° |
| 2026-05-08 19:30 | 52.30712 | 4.77593 | -2 ft | 9 kts | 4° |
| 2026-05-08 19:30 | 52.30775 | 4.77598 | -2 ft | 9 kts | 2° |
| 2026-05-08 19:31 | 52.30843 | 4.77604 | -2 ft | 10 kts | 2° |
| 2026-05-08 19:31 | 52.30900 | 4.77580 | -2 ft | 8 kts | 311° |
| 2026-05-08 19:31 | 52.30880 | 4.77510 | -2 ft | 8 kts | 208° |
| 2026-05-08 19:31 | 52.30840 | 4.77452 | -2 ft | 8 kts | 246° |
| 2026-05-08 19:32 | 52.30851 | 4.77372 | -2 ft | 8 kts | 322° |
| 2026-05-08 19:32 | 52.30883 | 4.77365 | -2 ft | 3 kts | 3° |
| 2026-05-08 19:32 | 52.30894 | 4.77366 | -2 ft | 1 kts | 3° |